Las Vegas, Nevada
Traffic Map
Current Weather Conditions
Las Vegas, Nevada
Scattered Clouds
Scattered Clouds
69°
Feels Like: 69°
Wind Chill: 69° Ceiling: Unl
Heat Index: 69° Visibility: 10mi
Dew Point: 53° Wind: 14mph
Humidity: 57% Direction: 30° (NNE)
Pressure: 30in Gusts: 0mph
Raw Report DataKLAS 221656Z 03012KT 10SM FEW065 SCT080 SCT110 21/12 A3000 RMK AO2 SLP144 T02060117
Traffic Incident Summary
Active as of:
Severity:
Category:
InformationThere was an issue retrieving the traffic information for this location. Please try a different location or try again shortly.
Advertisements